Time;durP1;ratioP1;P1;durP2;ratioP2;P2;SDS_P1;SDS_P2;PMS_P1;PMS_P2;Temp;Humidity;BMP_temperature;BMP_pressure;BME280_temperature;BME280_humidity;BME280_pressure;Samples;Min_cycle;Max_cycle;Signal;HPM_P1;HPM_P2
2023/01/07 00:01:22;;;;;;;;;4.00;4.00;;;;;12.67;65.85;101201.75;5037819;28;45344;-63
2023/01/07 00:03:49;;;;;;;;;4.00;4.00;;;;;12.63;66.37;101189.50;5037720;28;45300;-60
2023/01/07 00:06:15;;;;;;;;;3.67;2.67;;;;;12.65;65.77;101192.97;5019461;28;45307;-62
2023/01/07 00:08:42;;;;;;;;;5.67;4.00;;;;;12.65;64.67;101187.63;5037049;28;45435;-60
2023/01/07 00:11:15;;;;;;;;;4.00;4.00;;;;;12.59;64.78;101182.63;5037585;28;45491;-62
2023/01/07 00:13:44;;;;;;;;;3.67;3.67;;;;;12.58;65.69;101173.75;5038230;28;45429;-60
2023/01/07 00:16:13;;;;;;;;;2.67;2.67;;;;;12.60;65.93;101179.00;5038751;28;45542;-61
2023/01/07 00:18:39;;;;;;;;;3.67;2.67;;;;;12.57;65.21;101160.50;5037461;28;47214;-60
2023/01/07 00:21:08;;;;;;;;;3.00;3.00;;;;;12.56;65.28;101158.78;5037604;28;45345;-61
2023/01/07 00:23:35;;;;;;;;;3.00;3.00;;;;;12.60;65.69;101157.66;5037413;28;45296;-62
2023/01/07 00:26:04;;;;;;;;;3.00;3.00;;;;;12.61;65.06;101154.03;5037670;28;45429;-60
2023/01/07 00:28:32;;;;;;;;;7.00;5.00;;;;;12.59;66.09;101145.25;5037120;28;45400;-61
2023/01/07 00:31:03;;;;;;;;;4.00;4.00;;;;;12.57;64.92;101141.81;5036308;28;45434;-62
2023/01/07 00:33:28;;;;;;;;;4.00;3.33;;;;;12.61;65.16;101138.88;5037506;28;45458;-62
2023/01/07 00:36:01;;;;;;;;;3.00;3.00;;;;;12.61;64.78;101124.69;5037774;28;45509;-61
2023/01/07 00:38:27;;;;;;;;;1.00;1.00;;;;;12.59;64.34;101119.44;5037321;28;46712;-62
2023/01/07 00:40:53;;;;;;;;;1.67;1.67;;;;;12.60;65.30;101120.28;5019636;28;45274;-61
2023/01/07 00:43:18;;;;;;;;;3.00;3.00;;;;;12.63;64.85;101125.44;5019498;28;45456;-61
2023/01/07 00:45:43;;;;;;;;;5.00;2.33;;;;;12.59;64.56;101113.25;5037714;28;47097;-60
2023/01/07 00:48:09;;;;;;;;;2.67;2.67;;;;;12.52;65.10;101103.88;5019786;28;46222;-60
2023/01/07 00:50:35;;;;;;;;;5.33;3.00;;;;;12.55;63.89;101111.69;5038175;28;45360;-60
2023/01/07 00:53:02;;;;;;;;;2.00;2.00;;;;;12.52;64.93;101107.41;5038383;28;45408;-60
2023/01/07 00:55:28;;;;;;;;;3.00;3.00;;;;;12.53;64.54;101100.25;5038120;28;45260;-61
2023/01/07 00:57:54;;;;;;;;;2.00;2.00;;;;;12.52;64.58;101091.41;5037737;28;45277;-59
2023/01/07 01:00:21;;;;;;;;;7.00;4.00;;;;;12.56;64.58;101100.94;5037521;28;45296;-61
2023/01/07 01:02:47;;;;;;;;;2.00;2.00;;;;;12.53;64.03;101094.94;5037350;28;45380;-62
2023/01/07 01:05:13;;;;;;;;;3.33;3.33;;;;;12.50;65.01;101087.97;5037772;28;45612;-62
2023/01/07 01:07:39;;;;;;;;;4.00;3.00;;;;;12.52;64.62;101091.41;5019084;28;45399;-61
2023/01/07 01:10:08;;;;;;;;;3.00;3.00;;;;;12.52;64.87;101082.53;5037022;28;45332;-62
2023/01/07 01:12:34;;;;;;;;;3.33;3.33;;;;;12.46;64.00;101080.19;5036729;28;45728;-63
2023/01/07 01:15:01;;;;;;;;;4.00;2.67;;;;;12.48;64.11;101080.97;5036595;28;45155;-64
2023/01/07 01:17:28;;;;;;;;;1.00;1.00;;;;;12.44;64.13;101066.09;5036315;28;45186;-61
2023/01/07 01:19:53;;;;;;;;;2.33;2.00;;;;;12.51;64.44;101075.47;5036488;28;45268;-63
2023/01/07 01:22:18;;;;;;;;;6.33;3.00;;;;;12.53;64.14;101070.91;5001599;28;60766;-62
2023/01/07 01:24:44;;;;;;;;;4.00;2.00;;;;;12.55;64.30;101074.34;5037116;28;45368;-62
2023/01/07 01:27:09;;;;;;;;;1.00;1.00;;;;;12.53;64.31;101063.78;5036194;28;45438;-61
2023/01/07 01:29:34;;;;;;;;;1.00;1.00;;;;;12.50;64.11;101058.63;5036229;28;45462;-63
2023/01/07 01:32:00;;;;;;;;;2.00;2.00;;;;;12.54;64.10;101067.28;5036324;28;45442;-61
2023/01/07 01:34:25;;;;;;;;;3.67;3.67;;;;;12.46;64.12;101042.84;5036927;28;45289;-62
2023/01/07 01:36:51;;;;;;;;;2.00;2.00;;;;;12.47;63.46;101044.56;5036254;28;45591;-63
2023/01/07 01:39:19;;;;;;;;;3.00;3.00;;;;;12.50;64.15;101057.72;5018717;28;45415;-59
2023/01/07 01:41:44;;;;;;;;;2.33;2.00;;;;;12.53;64.39;101044.22;5036463;28;45255;-62
2023/01/07 01:44:36;;;;;;;;;3.00;3.00;;;;;12.55;64.46;101042.34;5036683;28;45606;-61
2023/01/07 01:47:22;;;;;;;;;2.67;2.67;;;;;12.53;63.94;101044.22;5037179;28;46278;-60
2023/01/07 01:50:18;;;;;;;;;2.00;2.00;;;;;12.51;63.55;101040.81;5035934;28;45467;-62
2023/01/07 01:53:06;;;;;;;;;1.00;1.00;;;;;12.51;63.45;101040.81;5034953;28;45432;-63
2023/01/07 01:55:39;;;;;;;;;1.67;1.67;;;;;12.48;64.30;101030.28;5036262;28;45558;-62
2023/01/07 01:58:15;;;;;;;;;3.67;2.67;;;;;12.44;63.99;101023.41;5035892;28;46226;-62
2023/01/07 02:00:41;;;;;;;;;4.00;2.33;;;;;12.49;63.88;101021.31;5001258;28;45376;-63
2023/01/07 02:03:10;;;;;;;;;3.00;1.00;;;;;12.40;63.97;101014.72;5021139;28;45404;-62
2023/01/07 02:05:40;;;;;;;;;7.33;3.33;;;;;12.46;63.23;101001.03;5015980;28;45667;-64
2023/01/07 02:08:06;;;;;;;;;2.00;2.00;;;;;12.51;64.65;101019.47;5015883;28;46226;-61
2023/01/07 02:10:32;;;;;;;;;3.00;1.00;;;;;12.40;64.67;101007.59;5015905;28;45307;-61
2023/01/07 02:13:29;;;;;;;;;2.33;2.33;;;;;12.47;64.76;101017.88;5015644;28;45273;-62
2023/01/07 02:16:01;;;;;;;;;2.33;2.00;;;;;12.43;65.21;101011.03;5016592;28;45517;-63
2023/01/07 02:18:26;;;;;;;;;2.00;2.00;;;;;12.39;64.79;101005.88;4997939;28;47191;-62
2023/01/07 02:21:32;;;;;;;;;3.00;3.00;;;;;12.37;64.84;101005.09;4998248;28;45278;-61
2023/01/07 02:24:34;;;;;;;;;2.00;2.00;;;;;12.43;64.84;101005.69;5016088;28;45288;-61
2023/01/07 02:27:35;;;;;;;;;1.67;1.67;;;;;12.36;64.71;101005.16;5016455;28;45254;-62
2023/01/07 02:30:03;;;;;;;;;2.00;2.00;;;;;12.31;64.91;101008.09;4935298;28;46287;-61
2023/01/07 02:33:01;;;;;;;;;3.00;3.00;;;;;12.28;64.57;100994.94;5000025;28;45405;-63
2023/01/07 02:36:05;;;;;;;;;1.67;1.67;;;;;12.27;65.03;101000.38;5016055;28;45312;-62
2023/01/07 02:38:54;;;;;;;;;2.00;1.00;;;;;12.30;65.22;101001.03;5016720;28;45447;-62
2023/01/07 02:41:39;;;;;;;;;2.00;2.00;;;;;12.29;65.01;100988.66;5016432;28;46158;-62
2023/01/07 02:44:30;;;;;;;;;2.00;2.00;;;;;12.26;65.20;100990.66;5016212;28;45346;-61
2023/01/07 02:47:17;;;;;;;;;1.67;1.00;;;;;12.22;64.84;100992.59;5014834;28;45252;-62
2023/01/07 02:49:46;;;;;;;;;1.00;1.00;;;;;12.20;64.51;100981.16;4997892;28;45550;-61
2023/01/07 02:52:21;;;;;;;;;1.33;1.33;;;;;12.21;65.68;100982.03;5015505;28;47179;-63
2023/01/07 02:55:07;;;;;;;;;3.00;3.00;;;;;12.21;65.63;100980.22;5015331;28;45368;-62
2023/01/07 02:58:10;;;;;;;;;2.00;2.00;;;;;12.25;65.13;100972.94;5015372;28;45477;-61
2023/01/07 03:00:49;;;;;;;;;2.33;1.67;;;;;12.28;65.33;100970.09;5015713;28;45360;-63
2023/01/07 03:03:33;;;;;;;;;2.00;2.00;;;;;12.23;65.38;100959.66;5015110;28;45398;-62
2023/01/07 03:06:01;;;;;;;;;1.00;1.00;;;;;12.24;65.04;100960.50;5015552;28;45363;-61
2023/01/07 03:08:34;;;;;;;;;2.00;1.33;;;;;12.23;64.84;100957.00;5015518;28;45263;-64
2023/01/07 03:11:03;;;;;;;;;1.33;0.67;;;;;12.21;64.72;100948.22;5016757;28;45560;-61
2023/01/07 03:13:41;;;;;;;;;1.00;1.00;;;;;12.23;64.76;100948.13;5037325;28;47226;-62
2023/01/07 03:16:37;;;;;;;;;1.00;1.00;;;;;12.24;64.71;100947.19;5038225;28;45360;-62
2023/01/07 03:19:08;;;;;;;;;2.67;1.67;;;;;12.21;64.71;100937.56;5039121;28;45360;-62
2023/01/07 03:21:36;;;;;;;;;1.00;1.00;;;;;12.20;63.59;100934.97;5039217;28;45360;-62
2023/01/07 03:24:01;;;;;;;;;2.33;2.00;;;;;12.23;63.65;100930.31;5038453;28;46039;-61
2023/01/07 03:26:38;;;;;;;;;3.67;3.00;;;;;12.23;63.68;100930.31;5019959;28;45548;-60
2023/01/07 03:29:06;;;;;;;;;2.00;2.00;;;;;12.23;63.97;100924.13;5038970;28;45328;-62
2023/01/07 03:31:33;;;;;;;;;1.00;1.00;;;;;12.16;63.40;100907.66;5022452;28;45598;-62
2023/01/07 03:34:01;;;;;;;;;3.00;1.33;;;;;12.21;63.74;100915.38;5020680;28;46340;-62
2023/01/07 03:36:33;;;;;;;;;3.00;3.00;;;;;12.25;63.25;100912.47;5038178;28;45408;-61
2023/01/07 03:38:59;;;;;;;;;1.00;1.00;;;;;12.23;62.99;100903.66;5020580;28;45287;-63
2023/01/07 03:44:09;;;;;;;;;2.00;1.00;;;;;12.17;62.86;100888.03;5038201;28;45359;-61
2023/01/07 03:46:36;;;;;;;;;2.00;2.00;;;;;12.26;63.72;100900.84;5038187;28;45273;-61
2023/01/07 03:49:01;;;;;;;;;1.00;1.00;;;;;12.23;62.81;100887.66;5038358;28;45975;-62
2023/01/07 03:51:26;;;;;;;;;2.00;2.00;;;;;12.29;62.09;100889.13;5020326;28;45619;-62
2023/01/07 03:53:52;;;;;;;;;1.00;1.00;;;;;12.17;63.10;100866.69;5020404;28;46416;-62
2023/01/07 03:56:17;;;;;;;;;1.00;1.00;;;;;12.24;62.89;100880.53;5020509;28;45404;-62
2023/01/07 03:58:42;;;;;;;;;0.00;0.00;;;;;12.21;62.61;100878.91;5020568;28;52934;-62
2023/01/07 04:01:08;;;;;;;;;1.33;1.33;;;;;12.18;62.59;100868.41;5039593;28;45301;-62
2023/01/07 04:03:33;;;;;;;;;0.67;0.67;;;;;12.24;62.54;100865.41;5020131;28;45305;-61
2023/01/07 04:05:59;;;;;;;;;1.00;0.67;;;;;12.20;62.24;100857.66;5018119;28;45298;-61
2023/01/07 04:08:24;;;;;;;;;1.00;1.00;;;;;12.25;62.65;100864.47;5017836;28;45258;-60
2023/01/07 04:10:50;;;;;;;;;0.00;0.00;;;;;12.22;62.24;100859.28;5018114;28;45335;-62
2023/01/07 04:13:15;;;;;;;;;1.00;1.00;;;;;12.22;61.97;100848.63;5017309;28;46014;-62
2023/01/07 04:15:41;;;;;;;;;1.00;1.00;;;;;12.24;62.45;100846.75;5017687;28;45320;-62
2023/01/07 04:18:07;;;;;;;;;3.00;1.00;;;;;12.26;62.35;100844.84;5018052;28;45335;-61
2023/01/07 04:20:33;;;;;;;;;1.00;1.00;;;;;12.21;62.02;100841.56;5017942;28;45317;-61
2023/01/07 04:22:58;;;;;;;;;2.00;1.00;;;;;12.22;62.36;100832.63;5016598;28;46161;-61
2023/01/07 04:25:24;;;;;;;;;1.67;1.00;;;;;12.22;62.38;100821.09;5016878;28;45566;-62
2023/01/07 04:27:49;;;;;;;;;1.00;1.00;;;;;12.24;61.87;100817.41;5017640;28;45816;-62
2023/01/07 04:30:14;;;;;;;;;1.00;1.00;;;;;12.19;62.66;100811.47;5017632;28;45226;-62
2023/01/07 04:32:40;;;;;;;;;2.00;1.00;;;;;12.16;62.13;100808.13;5017230;28;45514;-62
2023/01/07 04:35:05;;;;;;;;;3.00;2.00;;;;;12.10;62.45;100796.00;5017935;28;45455;-62
2023/01/07 04:37:31;;;;;;;;;1.00;1.00;;;;;12.10;62.63;100790.69;5017221;28;45253;-62
2023/01/07 04:39:56;;;;;;;;;0.00;0.00;;;;;12.02;62.87;100783.16;5017650;28;45305;-60
2023/01/07 04:42:21;;;;;;;;;1.00;1.00;;;;;11.95;62.91;100778.25;5017007;28;46665;-62
2023/01/07 04:44:47;;;;;;;;;1.00;1.00;;;;;11.88;62.39;100769.78;5017252;28;45257;-61
2023/01/07 04:47:12;;;;;;;;;1.67;1.00;;;;;11.89;63.06;100771.50;5017175;28;45435;-61
2023/01/07 04:49:38;;;;;;;;;0.00;0.00;;;;;11.88;63.09;100771.59;4999780;28;45563;-61
2023/01/07 04:52:04;;;;;;;;;1.00;1.00;;;;;11.85;63.36;100763.75;5016593;28;51260;-62
2023/01/07 04:54:29;;;;;;;;;2.67;1.33;;;;;11.85;63.36;100755.75;5016974;28;45361;-61
2023/01/07 04:56:55;;;;;;;;;1.00;1.00;;;;;11.85;63.38;100751.31;5017030;28;45251;-61
2023/01/07 04:59:20;;;;;;;;;2.00;1.33;;;;;11.81;62.96;100742.63;5017168;28;45917;-60
2023/01/07 05:01:46;;;;;;;;;1.00;1.00;;;;;11.74;63.28;100735.06;4998920;28;46409;-61
2023/01/07 05:04:11;;;;;;;;;1.33;1.33;;;;;11.74;63.67;100735.06;5017049;28;45329;-60
2023/01/07 05:06:36;;;;;;;;;2.00;2.00;;;;;11.69;63.66;100735.31;5017556;28;45251;-61
2023/01/07 05:09:02;;;;;;;;;1.67;1.67;;;;;11.67;64.13;100733.69;5017108;28;45581;-60
2023/01/07 05:11:27;;;;;;;;;2.00;2.00;;;;;11.60;64.39;100722.53;5019011;28;46705;-61
2023/01/07 05:13:52;;;;;;;;;3.33;2.00;;;;;11.59;64.67;100723.50;5037280;28;45421;-60
2023/01/07 05:16:18;;;;;;;;;2.00;2.00;;;;;11.55;64.55;100713.94;5038008;28;45319;-60
2023/01/07 05:18:44;;;;;;;;;2.67;2.67;;;;;11.53;64.88;100716.69;5036913;28;45531;-60
2023/01/07 05:21:09;;;;;;;;;2.00;2.00;;;;;11.40;65.04;100693.53;5036988;28;45435;-60
2023/01/07 05:23:35;;;;;;;;;4.00;2.67;;;;;11.40;65.14;100698.84;5036633;28;45340;-62
2023/01/07 05:26:00;;;;;;;;;3.33;3.33;;;;;11.41;66.01;100706.75;5036797;28;45292;-60
2023/01/07 05:28:26;;;;;;;;;3.00;3.00;;;;;11.35;66.00;100703.59;5036771;28;45362;-65
2023/01/07 05:30:51;;;;;;;;;3.67;3.67;;;;;11.28;66.14;100688.91;5036462;28;46190;-62
2023/01/07 05:33:16;;;;;;;;;4.67;3.00;;;;;11.26;66.14;100699.66;5036502;28;45352;-62
2023/01/07 05:35:42;;;;;;;;;4.00;3.67;;;;;11.21;66.80;100689.28;5037082;28;45324;-61
2023/01/07 05:38:07;;;;;;;;;4.67;3.00;;;;;11.20;67.08;100698.22;5019273;28;45645;-61
2023/01/07 05:40:33;;;;;;;;;2.00;2.00;;;;;11.17;66.81;100693.03;5036579;28;45292;-61
2023/01/07 05:42:58;;;;;;;;;4.00;3.00;;;;;11.09;67.35;100683.78;5036268;28;45367;-60
2023/01/07 05:45:24;;;;;;;;;2.67;2.67;;;;;11.11;67.17;100682.75;5036434;28;45268;-62
2023/01/07 05:47:49;;;;;;;;;3.67;2.00;;;;;11.06;67.54;100676.81;5035962;28;46435;-61
2023/01/07 05:50:15;;;;;;;;;3.00;3.00;;;;;11.02;67.84;100672.63;5035833;28;45977;-59
2023/01/07 05:52:40;;;;;;;;;1.00;1.00;;;;;10.96;67.87;100675.63;5036609;28;45277;-63
2023/01/07 05:55:07;;;;;;;;;3.00;3.00;;;;;10.94;68.12;100685.53;5018470;28;45194;-61
2023/01/07 05:57:32;;;;;;;;;1.00;1.00;;;;;10.90;68.50;100690.13;5036486;28;45591;-60
2023/01/07 05:59:57;;;;;;;;;2.00;2.00;;;;;10.89;68.38;100690.22;5017819;28;48324;-60
2023/01/07 06:02:23;;;;;;;;;0.50;0.50;;;;;10.87;68.40;100692.13;5036048;28;46615;-62
2023/01/07 06:04:48;;;;;;;;;1.00;1.00;;;;;10.87;68.42;100692.13;5036768;28;45282;-62
2023/01/07 06:07:14;;;;;;;;;3.00;3.00;;;;;10.82;67.90;100679.06;5038294;28;45226;-61
2023/01/07 06:09:39;;;;;;;;;7.67;4.67;;;;;10.78;68.16;100679.31;5038040;28;46706;-63
2023/01/07 06:12:04;;;;;;;;;3.33;3.33;;;;;10.71;68.55;100672.63;5029156;28;45578;-61
2023/01/07 06:14:30;;;;;;;;;6.00;6.00;;;;;10.71;68.74;100677.94;5016683;28;45829;-61
2023/01/07 06:16:55;;;;;;;;;5.00;3.00;;;;;10.68;68.65;100684.31;5016323;28;45525;-61
2023/01/07 06:19:21;;;;;;;;;6.00;4.00;;;;;10.63;68.85;100681.88;5016011;28;45453;-61
2023/01/07 06:21:47;;;;;;;;;3.00;3.00;;;;;10.60;68.84;100691.84;5015813;28;45320;-62
2023/01/07 06:24:13;;;;;;;;;6.50;4.25;;;;;10.51;68.93;100677.22;5016458;28;45400;-62
2023/01/07 06:26:41;;;;;;;;;3.67;1.00;;;;;10.52;68.58;100681.59;5015879;28;45561;-62
2023/01/07 06:29:06;;;;;;;;;4.33;4.33;;;;;10.41;69.53;100670.69;5015282;28;53185;-64
2023/01/07 06:31:32;;;;;;;;;3.00;3.00;;;;;10.49;69.04;100687.09;4997113;28;45335;-60
2023/01/07 06:33:57;;;;;;;;;3.00;3.00;;;;;10.38;69.33;100670.84;4981441;28;45245;-61
2023/01/07 06:36:23;;;;;;;;;6.00;3.67;;;;;10.39;69.17;100677.88;4998223;28;45375;-60
2023/01/07 06:38:48;;;;;;;;;5.00;3.00;;;;;10.37;69.47;100677.13;5015641;28;46514;-60
2023/01/07 06:41:13;;;;;;;;;2.00;2.00;;;;;10.38;69.83;100681.50;5016036;28;45226;-62
2023/01/07 06:43:39;;;;;;;;;6.33;5.00;;;;;10.37;69.89;100689.56;4997966;28;45254;-61
2023/01/07 06:46:04;;;;;;;;;5.00;5.00;;;;;10.31;69.67;100680.13;5016684;28;47844;-61
2023/01/07 06:48:29;;;;;;;;;2.33;2.33;;;;;10.33;69.15;100683.53;5018793;28;45501;-61
2023/01/07 06:50:55;;;;;;;;;5.00;5.00;;;;;10.25;69.53;100675.13;5019049;28;45460;-61
2023/01/07 06:53:20;;;;;;;;;5.75;4.50;;;;;10.23;70.55;100677.84;5018942;28;45462;-61
2023/01/07 06:55:50;;;;;;;;;2.00;2.00;;;;;10.20;69.75;100670.03;5019307;28;45305;-61
2023/01/07 06:58:16;;;;;;;;;5.75;4.00;;;;;10.19;70.00;100670.09;5018996;28;45482;-62
2023/01/07 07:00:42;;;;;;;;;4.25;4.25;;;;;10.15;69.79;100655.25;5020466;28;45161;-62
2023/01/07 07:03:07;;;;;;;;;3.00;3.00;;;;;10.13;70.30;100651.81;5019991;28;45373;-60
2023/01/07 07:05:33;;;;;;;;;4.00;3.00;;;;;10.13;69.92;100655.31;5001243;28;45253;-62
2023/01/07 07:07:59;;;;;;;;;3.75;3.25;;;;;10.08;70.09;100643.22;5018544;28;45264;-62
2023/01/07 07:10:25;;;;;;;;;3.00;3.00;;;;;10.02;69.93;100653.22;5018567;28;45510;-61
2023/01/07 07:12:50;;;;;;;;;3.00;3.00;;;;;9.98;69.61;100646.38;5032130;28;45400;-61
2023/01/07 07:15:16;;;;;;;;;3.00;3.00;;;;;9.94;70.04;100639.50;5038966;28;45501;-62
2023/01/07 07:17:41;;;;;;;;;4.33;4.33;;;;;9.98;70.22;100645.50;5038439;28;45444;-61
2023/01/07 07:20:07;;;;;;;;;6.00;4.50;;;;;9.95;69.79;100638.56;5038356;28;45556;-61
2023/01/07 07:22:33;;;;;;;;;5.50;4.50;;;;;9.92;70.25;100636.09;5020559;28;45415;-60
2023/01/07 07:24:58;;;;;;;;;5.00;5.00;;;;;9.88;69.67;100626.53;5038471;28;45621;-62
2023/01/07 07:27:23;;;;;;;;;5.25;5.25;;;;;9.91;70.37;100634.38;5020113;28;46258;-62
2023/01/07 07:29:49;;;;;;;;;5.75;5.25;;;;;9.84;69.90;100622.34;5038378;28;45742;-62
2023/01/07 07:32:14;;;;;;;;;5.00;5.00;;;;;9.88;69.99;100629.19;5038830;28;45254;-62
2023/01/07 07:34:40;;;;;;;;;4.50;3.50;;;;;9.91;69.71;100637.03;5020368;28;45721;-61
2023/01/07 07:37:05;;;;;;;;;3.67;3.00;;;;;9.88;70.16;100634.50;5038313;28;46498;-62
2023/01/07 07:39:30;;;;;;;;;5.00;3.00;;;;;9.81;69.60;100617.19;5038007;28;46509;-61
2023/01/07 07:41:56;;;;;;;;;5.00;5.00;;;;;9.80;69.80;100609.31;5037888;28;45264;-61
2023/01/07 07:44:21;;;;;;;;;3.50;3.50;;;;;9.84;70.11;100627.63;5038154;28;45356;-62
2023/01/07 07:46:47;;;;;;;;;4.50;3.00;;;;;9.74;69.78;100605.16;5038017;28;46196;-64
2023/01/07 07:49:12;;;;;;;;;5.00;5.00;;;;;9.83;70.09;100614.44;5037675;28;45325;-64
2023/01/07 07:51:38;;;;;;;;;3.00;3.00;;;;;9.75;69.51;100602.41;5038664;28;45344;-63
2023/01/07 07:54:03;;;;;;;;;5.00;5.00;;;;;9.81;69.58;100622.50;5039627;28;45329;-65
2023/01/07 07:56:29;;;;;;;;;4.50;4.50;;;;;9.75;69.65;100610.38;5039825;28;46147;-65
2023/01/07 07:58:54;;;;;;;;;4.25;2.25;;;;;9.71;69.87;100610.63;5038077;28;45388;-69
2023/01/07 08:01:20;;;;;;;;;3.00;3.00;;;;;9.74;69.43;100605.16;5020440;28;45347;-63
2023/01/07 08:03:45;;;;;;;;;4.33;4.33;;;;;9.73;69.10;100604.28;5018163;28;45522;-63
2023/01/07 08:06:11;;;;;;;;;6.00;5.00;;;;;9.73;69.92;100609.59;4999723;28;46754;-71
2023/01/07 08:08:37;;;;;;;;;3.50;3.50;;;;;9.67;69.12;100593.16;5017760;28;45789;-65
2023/01/07 08:11:03;;;;;;;;;2.75;2.75;;;;;9.65;69.27;100589.72;5017903;28;45629;-67
2023/01/07 08:13:29;;;;;;;;;5.75;2.00;;;;;9.71;69.55;100600.88;4999899;28;45609;-70
2023/01/07 08:15:55;;;;;;;;;7.50;5.00;;;;;9.70;69.06;100608.91;5016905;28;45314;-67
2023/01/07 08:18:22;;;;;;;;;6.00;4.00;;;;;9.71;69.56;100603.53;5017664;28;45455;-65
2023/01/07 08:20:48;;;;;;;;;3.00;3.00;;;;;9.66;69.52;100594.94;5018324;28;45396;-62
2023/01/07 08:23:13;;;;;;;;;7.25;6.25;;;;;9.64;69.69;100585.34;5017813;28;45245;-64
2023/01/07 08:25:39;;;;;;;;;7.00;5.00;;;;;9.60;69.21;100586.44;5017507;28;45431;-64
2023/01/07 08:28:04;;;;;;;;;5.00;3.00;;;;;9.65;69.30;100587.94;5017835;28;45357;-64
2023/01/07 08:30:29;;;;;;;;;4.50;4.50;;;;;9.72;68.96;100596.41;5018301;28;45310;-63
2023/01/07 08:32:56;;;;;;;;;7.00;5.00;;;;;9.73;68.92;100592.81;5018590;28;45483;-64
2023/01/07 08:35:22;;;;;;;;;4.50;4.50;;;;;9.74;69.37;100595.38;5018022;28;46057;-65
2023/01/07 08:37:48;;;;;;;;;2.00;0.75;;;;;9.79;68.71;100581.88;5017637;28;45397;-66
2023/01/07 08:40:13;;;;;;;;;8.00;6.00;;;;;9.80;68.98;100572.13;5017654;28;45319;-66
2023/01/07 08:42:40;;;;;;;;;7.75;5.25;;;;;9.79;68.56;100565.09;5017752;28;45440;-69
2023/01/07 08:45:07;;;;;;;;;6.00;6.00;;;;;9.80;69.38;100567.66;4999853;28;45340;-66
2023/01/07 08:47:33;;;;;;;;;4.33;3.00;;;;;9.85;69.17;100557.63;5017824;28;45750;-67
2023/01/07 08:49:58;;;;;;;;;5.00;5.00;;;;;9.84;68.81;100553.28;5000589;28;45281;-66
2023/01/07 08:52:24;;;;;;;;;6.75;5.50;;;;;9.83;68.36;100543.59;5017948;28;45159;-66
2023/01/07 08:54:50;;;;;;;;;10.00;8.00;;;;;9.78;68.77;100520.88;5017654;28;46323;-64
2023/01/07 08:57:17;;;;;;;;;6.25;6.00;;;;;10.00;68.12;100543.53;5017452;28;45409;-66
2023/01/07 08:59:42;;;;;;;;;8.50;6.75;;;;;10.04;68.02;100534.47;4983350;28;45431;-66
2023/01/07 09:02:16;;;;;;;;;3.00;3.00;;;;;10.05;69.00;100536.19;5016836;28;45376;-66
2023/01/07 09:04:42;;;;;;;;;4.75;4.75;;;;;10.04;68.29;100528.28;5017722;28;46925;-64
2023/01/07 09:07:08;;;;;;;;;6.00;6.00;;;;;10.09;68.74;100528.88;5017726;28;45402;-63
2023/01/07 09:09:33;;;;;;;;;10.25;6.00;;;;;10.08;67.88;100513.03;4999833;28;45400;-63
2023/01/07 09:11:59;;;;;;;;;6.50;6.50;;;;;10.15;68.06;100517.91;5023698;28;45562;-62
2023/01/07 09:14:24;;;;;;;;;6.50;4.25;;;;;10.24;68.08;100509.47;5036438;28;45340;-63
2023/01/07 09:16:50;;;;;;;;;3.25;3.25;;;;;10.25;67.84;100505.00;5037256;28;45408;-60
2023/01/07 09:19:15;;;;;;;;;7.00;7.00;;;;;10.29;67.79;100495.94;5036842;28;45254;-63
2023/01/07 09:21:41;;;;;;;;;3.75;3.75;;;;;10.34;67.83;100480.56;5037060;28;45568;-61
2023/01/07 09:24:06;;;;;;;;;8.25;7.00;;;;;10.33;67.37;100489.50;5036184;28;45247;-65
2023/01/07 09:26:32;;;;;;;;;5.75;5.75;;;;;10.25;67.34;100467.78;5036494;28;45174;-68
2023/01/07 09:28:57;;;;;;;;;3.25;3.25;;;;;10.30;67.08;100476.38;5036509;28;45545;-64
2023/01/07 09:31:22;;;;;;;;;6.00;6.00;;;;;10.34;67.81;100477.91;5037061;28;45230;-62
2023/01/07 09:33:48;;;;;;;;;5.00;5.00;;;;;10.31;67.19;100468.31;5036412;28;46228;-63
2023/01/07 09:36:13;;;;;;;;;4.75;4.75;;;;;10.31;67.06;100460.34;5036519;28;45262;-63
2023/01/07 09:38:39;;;;;;;;;4.67;4.67;;;;;10.28;67.72;100456.97;5036839;28;45252;-65
2023/01/07 09:41:34;;;;;;;;;7.50;6.00;;;;;10.23;67.48;100441.31;5036557;28;45209;-68
2023/01/07 09:44:14;;;;;;;;;3.25;3.25;;;;;10.35;67.33;100450.38;4998313;28;46133;-62
2023/01/07 09:46:47;;;;;;;;;5.75;5.75;;;;;10.37;67.71;100445.84;5036071;28;45429;-63
2023/01/07 09:49:17;;;;;;;;;5.75;5.75;;;;;10.33;67.80;100426.56;5036308;28;45460;-65
2023/01/07 09:51:49;;;;;;;;;8.00;6.25;;;;;10.45;66.75;100425.00;5036511;28;45397;-64
2023/01/07 09:54:38;;;;;;;;;6.75;5.50;;;;;10.53;66.98;100438.69;5035291;28;45407;-66
2023/01/07 09:57:04;;;;;;;;;5.50;5.50;;;;;10.54;66.91;100435.06;5018400;28;45290;-66
2023/01/07 09:59:30;;;;;;;;;7.25;5.50;;;;;10.51;66.88;100443.22;5036494;28;45329;-70
2023/01/07 10:02:19;;;;;;;;;7.25;4.25;;;;;10.53;67.00;100429.84;5036278;28;45510;-66
2023/01/07 10:04:53;;;;;;;;;6.50;4.75;;;;;10.58;66.62;100441.94;5025131;28;45426;-60
2023/01/07 10:07:49;;;;;;;;;11.75;8.00;;;;;10.63;66.63;100425.72;5017937;28;45455;-65
2023/01/07 10:10:34;;;;;;;;;6.50;6.50;;;;;10.64;66.47;100430.94;5012549;28;45559;-68
2023/01/07 10:13:22;;;;;;;;;7.25;7.00;;;;;10.64;66.42;100444.22;5001744;28;45467;-65
2023/01/07 10:15:57;;;;;;;;;9.25;5.75;;;;;10.67;66.36;100437.00;5035801;28;46411;-68
2023/01/07 10:18:34;;;;;;;;;3.67;3.67;;;;;10.68;66.66;100434.28;5017979;28;46456;-65
2023/01/07 10:21:11;;;;;;;;;4.33;4.33;;;;;10.71;66.44;100433.25;5037187;28;45226;-68
2023/01/07 10:23:45;;;;;;;;;4.00;4.00;;;;;10.69;65.92;100413.88;5040043;28;45302;-69
2023/01/07 10:26:28;;;;;;;;;3.67;3.00;;;;;10.78;65.81;100419.47;5021680;28;46092;-71
2023/01/07 10:29:00;;;;;;;;;7.50;7.50;;;;;10.84;66.37;100412.94;5040367;28;45225;-67
2023/01/07 10:31:27;;;;;;;;;8.67;6.00;;;;;10.86;66.26;100400.41;5040942;28;45590;-67
2023/01/07 10:33:54;;;;;;;;;6.00;6.00;;;;;10.95;65.56;100396.34;5040364;28;45255;-68
2023/01/07 10:36:50;;;;;;;;;7.25;7.25;;;;;11.00;65.49;100391.59;5039787;28;46424;-68
2023/01/07 10:39:31;;;;;;;;;6.00;4.33;;;;;11.03;64.67;100380.75;5039120;28;45435;-68
2023/01/07 10:42:18;;;;;;;;;5.33;5.33;;;;;11.12;64.82;100390.84;5039683;28;45385;-68
2023/01/07 10:44:55;;;;;;;;;11.00;7.00;;;;;11.10;65.18;100382.94;5021464;28;45259;-69
2023/01/07 10:47:55;;;;;;;;;2.67;2.67;;;;;11.09;64.46;100369.75;5038891;28;45339;-69
2023/01/07 10:50:39;;;;;;;;;6.33;6.33;;;;;11.05;64.35;100373.53;5039441;28;45850;-68
2023/01/07 10:53:50;;;;;;;;;7.75;4.50;;;;;11.07;64.25;100367.19;5039608;28;45800;-67
2023/01/07 10:56:36;;;;;;;;;2.00;2.00;;;;;11.05;65.03;100339.78;4958519;28;45280;-63
2023/01/07 10:59:02;;;;;;;;;4.67;2.67;;;;;11.08;64.43;100346.75;5039200;28;46345;-67
2023/01/07 11:01:35;;;;;;;;;3.00;3.00;;;;;11.08;64.15;100344.94;5039265;28;45572;-66
2023/01/07 11:04:01;;;;;;;;;4.33;4.33;;;;;11.12;64.33;100346.44;5039301;28;45524;-63
2023/01/07 11:06:51;;;;;;;;;4.67;4.67;;;;;11.18;64.48;100332.75;5039326;28;45466;-69
2023/01/07 11:09:22;;;;;;;;;9.50;7.00;;;;;11.21;64.09;100339.72;5038419;28;46155;-66
2023/01/07 11:11:49;;;;;;;;;7.00;5.67;;;;;11.28;64.05;100327.69;5038127;28;45528;-64
2023/01/07 11:14:21;;;;;;;;;7.00;4.00;;;;;11.27;63.29;100320.66;5020532;28;45468;-63
2023/01/07 11:17:06;;;;;;;;;5.33;5.33;;;;;11.33;63.69;100311.44;5020762;28;45349;-62
2023/01/07 11:19:50;;;;;;;;;4.00;4.00;;;;;11.39;63.77;100301.25;5038189;28;45439;-66
2023/01/07 11:22:28;;;;;;;;;6.00;6.00;;;;;11.59;62.91;100300.00;5037800;28;45474;-68
2023/01/07 11:24:56;;;;;;;;;7.00;4.67;;;;;11.81;62.16;100300.31;5038502;28;45331;-66
2023/01/07 11:27:25;;;;;;;;;6.67;3.67;;;;;11.95;62.40;100290.53;5038676;28;46193;-67
2023/01/07 11:30:02;;;;;;;;;6.00;6.00;;;;;12.10;62.05;100274.38;5037921;28;45433;-63
2023/01/07 11:32:37;;;;;;;;;6.33;6.33;;;;;12.15;61.58;100266.09;5020475;28;45402;-67
2023/01/07 11:35:21;;;;;;;;;5.33;5.33;;;;;12.14;61.32;100259.06;5038122;28;45490;-61
2023/01/07 11:37:48;;;;;;;;;6.67;5.33;;;;;12.13;62.48;100265.34;5020880;28;45384;-63
2023/01/07 11:40:13;;;;;;;;;5.33;5.33;;;;;12.08;61.20;100278.09;5038022;28;46557;-60
2023/01/07 11:43:22;;;;;;;;;7.00;5.33;;;;;12.04;60.84;100265.94;5038021;28;45316;-64